Time;durP1;ratioP1;P1;durP2;ratioP2;P2;SDS_P1;SDS_P2;PMS_P1;PMS_P2;Temp;Humidity;BMP_temperature;BMP_pressure;BME280_temperature;BME280_humidity;BME280_pressure;Samples;Min_cycle;Max_cycle;Signal;HPM_P1;HPM_P2
2023/05/06 00:01:31;;;;;;;15.40;11.68;;;;;;;10.62;100.00;63812.56;4981811;28;20031;-94
2023/05/06 00:03:56;;;;;;;15.67;11.23;;;;;;;10.60;100.00;63810.31;4981816;28;20058;-94
2023/05/06 00:06:21;;;;;;;18.03;11.17;;;;;;;10.56;100.00;63807.25;4981328;28;20038;-93
2023/05/06 00:08:47;;;;;;;17.23;12.10;;;;;;;10.53;100.00;63804.06;4980527;28;20282;-94
2023/05/06 00:11:12;;;;;;;18.60;12.40;;;;;;;10.50;100.00;63800.44;4982476;28;20033;-94
2023/05/06 00:13:38;;;;;;;15.90;12.10;;;;;;;10.46;100.00;63796.19;4968800;28;20062;-95
2023/05/06 00:16:03;;;;;;;16.75;12.02;;;;;;;10.42;100.00;63792.78;4986690;28;20031;-94
2023/05/06 00:18:29;;;;;;;18.30;11.57;;;;;;;10.38;100.00;63789.22;4987438;28;20033;-94
2023/05/06 00:20:54;;;;;;;18.83;11.82;;;;;;;10.34;100.00;63784.69;4970780;28;20023;-95
2023/05/06 00:23:20;;;;;;;18.47;12.00;;;;;;;10.30;100.00;63780.44;4989666;28;20030;-94
2023/05/06 00:25:45;;;;;;;22.83;13.27;;;;;;;10.26;100.00;63776.22;4986287;28;20019;-94
2023/05/06 00:28:11;;;;;;;17.55;13.05;;;;;;;10.21;100.00;63772.06;4968326;28;20026;-94
2023/05/06 00:30:36;;;;;;;18.63;12.83;;;;;;;10.17;100.00;63767.56;4985709;28;20034;-95
2023/05/06 00:33:01;;;;;;;24.17;14.07;;;;;;;10.13;100.00;63763.66;4986216;28;20114;-94
2023/05/06 00:35:27;;;;;;;19.80;13.67;;;;;;;10.09;100.00;63759.34;4986168;28;20026;-94
2023/05/06 00:38:08;;;;;;;24.70;14.27;;;;;;;10.05;100.00;63755.34;4986450;28;20031;-95
2023/05/06 00:40:33;;;;;;;20.77;14.00;;;;;;;10.00;100.00;63751.03;4984741;28;20033;-94
2023/05/06 00:42:59;;;;;;;19.50;13.20;;;;;;;9.96;100.00;63747.38;4968048;28;20027;-93
2023/05/06 00:45:24;;;;;;;22.57;13.83;;;;;;;9.92;100.00;63743.72;4986266;28;20023;-94
2023/05/06 00:47:50;;;;;;;20.20;13.40;;;;;;;9.87;100.00;63738.81;4986746;28;20031;-95
2023/05/06 00:50:16;;;;;;;20.65;14.02;;;;;;;9.83;100.00;63734.56;4969447;28;20042;-94
2023/05/06 00:52:42;;;;;;;20.60;13.38;;;;;;;9.78;100.00;63730.34;4974503;28;20041;-94
2023/05/06 00:55:08;;;;;;;26.97;13.57;;;;;;;9.73;100.00;63724.84;4992251;28;20031;-93
2023/05/06 00:57:33;;;;;;;19.98;13.77;;;;;;;9.69;100.00;63720.44;4993476;28;20022;-94
2023/05/06 00:59:59;;;;;;;18.60;13.63;;;;;;;9.65;100.00;63716.19;4993663;28;20035;-94
2023/05/06 01:02:24;;;;;;;20.58;14.35;;;;;;;9.60;100.00;63711.47;4994861;28;20030;-94
2023/05/06 01:04:50;;;;;;;23.77;14.77;;;;;;;9.55;100.00;63707.47;4996447;28;20041;-95
2023/05/06 01:07:41;;;;;;;23.33;15.05;;;;;;;9.52;100.00;63704.09;4980965;28;20014;-94
2023/05/06 01:10:44;;;;;;;20.40;14.32;;;;;;;9.48;100.00;63701.00;4993355;28;20106;-95
2023/05/06 01:13:29;;;;;;;25.58;15.60;;;;;;;9.45;100.00;63697.50;4912121;29;20125;-96
2023/05/06 01:15:57;;;;;;;22.30;14.95;;;;;;;9.41;100.00;63693.63;4966284;28;20039;-96
2023/05/06 01:18:25;;;;;;;20.87;14.87;;;;;;;9.37;100.00;63689.88;4988456;28;20029;-94
2023/05/06 01:20:52;;;;;;;22.83;14.63;;;;;;;9.33;100.00;63686.38;4988528;28;20285;-94
2023/05/06 01:23:18;;;;;;;24.30;15.60;;;;;;;9.30;100.00;63682.72;4988722;28;20027;-94
2023/05/06 01:25:43;;;;;;;23.90;14.93;;;;;;;9.26;100.00;63678.56;4988425;28;20038;-93
2023/05/06 01:28:10;;;;;;;21.57;14.73;;;;;;;9.21;100.00;63674.41;4988226;28;20280;-94
2023/05/06 01:30:51;;;;;;;24.50;15.02;;;;;;;9.18;100.00;63671.19;4971567;28;20031;-94
2023/05/06 01:33:39;;;;;;;25.08;15.27;;;;;;;9.15;100.00;63667.94;4986304;28;20035;-95
2023/05/06 01:36:13;;;;;;;26.48;16.42;;;;;;;9.12;100.00;63664.94;4985520;28;20033;-96
2023/05/06 01:38:53;;;;;;;24.73;16.00;;;;;;;9.08;100.00;63661.94;4985529;28;20423;-95
2023/05/06 01:41:20;;;;;;;24.65;15.73;;;;;;;9.05;100.00;63658.63;4985286;28;20045;-95
2023/05/06 01:43:47;;;;;;;23.27;16.00;;;;;;;9.02;100.00;63655.56;4968310;28;20062;-95
2023/05/06 01:46:17;;;;;;;27.65;16.15;;;;;;;9.00;100.00;63652.91;4985832;28;20062;-95
2023/05/06 01:48:45;;;;;;;23.90;16.20;;;;;;;8.98;100.00;63650.66;4986054;28;20034;-94
2023/05/06 01:51:12;;;;;;;24.70;15.93;;;;;;;8.95;100.00;63648.09;4968808;28;20054;-96
2023/05/06 01:53:37;;;;;;;24.33;15.57;;;;;;;8.93;100.00;63645.44;4985197;28;20340;-94
2023/05/06 01:56:03;;;;;;;25.50;15.48;;;;;;;8.90;100.00;63643.00;4984698;28;20390;-94
2023/05/06 01:58:28;;;;;;;25.27;14.60;;;;;;;8.86;100.00;63639.78;4984684;28;20023;-95
2023/05/06 02:00:54;;;;;;;24.67;15.48;;;;;;;8.84;100.00;63637.63;4985390;28;20034;-95
2023/05/06 02:03:20;;;;;;;28.43;17.57;;;;;;;8.82;100.00;63635.88;4986337;28;20038;-96
2023/05/06 02:05:45;;;;;;;29.60;16.50;;;;;;;8.81;100.00;63634.06;4988952;28;20031;-95
2023/05/06 02:08:10;;;;;;;23.65;15.68;;;;;;;8.79;100.00;63632.56;4989760;28;20102;-95
2023/05/06 02:10:36;;;;;;;21.83;14.57;;;;;;;8.77;100.00;63629.97;4990233;28;20015;-96
2023/05/06 02:13:01;;;;;;;25.30;15.30;;;;;;;8.75;100.00;63628.56;4990338;28;20023;-96
2023/05/06 02:15:26;;;;;;;23.03;15.17;;;;;;;8.73;100.00;63626.81;4973447;28;20034;-96
2023/05/06 02:17:52;;;;;;;23.40;14.20;;;;;;;8.71;100.00;63624.16;4973625;28;20030;-96
2023/05/06 02:20:17;;;;;;;22.77;13.90;;;;;;;8.68;100.00;63621.69;4972883;28;20042;-95
2023/05/06 02:22:43;;;;;;;19.47;13.67;;;;;;;8.66;100.00;63619.19;4973900;28;20033;-96
2023/05/06 02:25:09;;;;;;;20.80;14.47;;;;;;;8.63;100.00;63616.88;4990044;28;20019;-95
2023/05/06 02:27:34;;;;;;;22.80;14.65;;;;;;;8.61;100.00;63614.22;4957205;28;20054;-95
2023/05/06 02:30:01;;;;;;;22.97;13.77;;;;;;;8.58;100.00;63612.13;4989725;28;20099;-94
2023/05/06 02:32:26;;;;;;;23.70;14.57;;;;;;;8.56;100.00;63610.16;4973549;28;20274;-96
2023/05/06 02:34:52;;;;;;;25.08;14.07;;;;;;;8.54;100.00;63607.47;4989144;28;20164;-95
2023/05/06 02:37:20;;;;;;;20.03;13.57;;;;;;;8.51;100.00;63604.31;4972248;28;20022;-94
2023/05/06 02:39:52;;;;;;;22.20;13.50;;;;;;;8.47;100.00;63600.81;4989899;28;20475;-96
2023/05/06 02:42:17;;;;;;;21.65;13.27;;;;;;;8.44;100.00;63597.66;4972478;28;20019;-95
2023/05/06 02:44:43;;;;;;;20.07;13.10;;;;;;;8.40;100.00;63594.41;4973408;28;20066;-95
2023/05/06 02:47:09;;;;;;;23.97;14.13;;;;;;;8.37;100.00;63590.78;4990482;28;20030;-96
2023/05/06 02:49:41;;;;;;;19.15;13.70;;;;;;;8.34;100.00;63587.88;4973885;28;20027;-93
2023/05/06 02:52:06;;;;;;;21.13;13.50;;;;;;;8.31;100.00;63584.78;4990615;28;20034;-96
2023/05/06 02:54:31;;;;;;;20.03;13.33;;;;;;;8.27;100.00;63581.06;4990154;28;20019;-96
2023/05/06 02:56:57;;;;;;;21.30;14.13;;;;;;;8.24;100.00;63577.41;4990279;28;20070;-96
2023/05/06 02:59:22;;;;;;;25.37;13.90;;;;;;;8.21;100.00;63574.66;4990893;28;20030;-94
2023/05/06 03:01:48;;;;;;;22.77;13.43;;;;;;;8.18;100.00;63571.78;4993516;28;20278;-94
2023/05/06 03:04:13;;;;;;;20.27;12.43;;;;;;;8.15;100.00;63568.94;4993051;28;20023;-94
2023/05/06 03:06:39;;;;;;;22.10;14.10;;;;;;;8.11;100.00;63566.03;4991057;28;20018;-95
2023/05/06 03:09:04;;;;;;;20.08;12.77;;;;;;;8.08;100.00;63562.53;4973058;28;20550;-95
2023/05/06 03:11:30;;;;;;;19.97;13.20;;;;;;;8.05;100.00;63559.66;4989258;28;20031;-94
2023/05/06 03:13:56;;;;;;;21.60;13.07;;;;;;;8.01;100.00;63555.75;4989476;28;20026;-94
2023/05/06 03:16:22;;;;;;;20.15;12.48;;;;;;;7.98;100.00;63552.44;4972267;28;20026;-94
2023/05/06 03:18:47;;;;;;;19.37;13.00;;;;;;;7.95;100.00;63549.19;4970325;28;20023;-95
2023/05/06 03:21:13;;;;;;;20.50;12.75;;;;;;;7.92;100.00;63546.22;4987887;28;20031;-94
2023/05/06 03:23:38;;;;;;;22.23;13.17;;;;;;;7.89;100.00;63543.53;4972130;28;20054;-96
2023/05/06 03:26:03;;;;;;;20.70;12.77;;;;;;;7.86;100.00;63540.31;4971887;28;20292;-95
2023/05/06 03:28:29;;;;;;;22.03;12.80;;;;;;;7.84;100.00;63538.41;4989174;28;20653;-95
2023/05/06 03:30:55;;;;;;;19.25;12.38;;;;;;;7.82;100.00;63536.75;4971280;28;20368;-94
2023/05/06 03:33:20;;;;;;;19.33;11.93;;;;;;;7.80;100.00;63534.75;4988672;28;20031;-94
2023/05/06 03:35:45;;;;;;;20.02;12.45;;;;;;;7.78;100.00;63533.06;4988529;28;20085;-95
2023/05/06 03:38:11;;;;;;;19.43;11.67;;;;;;;7.76;100.00;63531.09;4988187;28;20019;-94
2023/05/06 03:40:36;;;;;;;21.17;12.10;;;;;;;7.74;100.00;63529.09;4988231;28;20038;-95
2023/05/06 03:43:02;;;;;;;18.90;11.80;;;;;;;7.73;100.00;63527.69;4988863;28;20029;-96
2023/05/06 03:45:27;;;;;;;19.70;11.65;;;;;;;7.71;100.00;63526.59;4988114;28;20094;-96
2023/05/06 03:47:53;;;;;;;21.13;11.53;;;;;;;7.70;100.00;63525.38;4989468;28;20030;-96
2023/05/06 03:50:18;;;;;;;17.90;11.73;;;;;;;7.69;100.00;63523.72;4971562;28;20058;-95
2023/05/06 03:52:43;;;;;;;19.20;12.47;;;;;;;7.67;100.00;63522.47;4988852;28;20089;-95
2023/05/06 03:55:09;;;;;;;18.20;11.73;;;;;;;7.66;100.00;63521.31;4970965;28;20051;-95
2023/05/06 03:57:34;;;;;;;21.10;11.43;;;;;;;7.64;100.00;63519.81;4988687;28;20045;-96
2023/05/06 03:59:59;;;;;;;20.37;11.07;;;;;;;7.62;100.00;63517.66;4987770;28;20082;-96
2023/05/06 04:02:25;;;;;;;17.17;10.63;;;;;;;7.61;100.00;63516.00;4988531;28;20023;-94
2023/05/06 04:04:50;;;;;;;18.08;10.63;;;;;;;7.59;100.00;63514.81;4970912;28;20394;-93
2023/05/06 04:07:16;;;;;;;20.73;11.67;;;;;;;7.58;100.00;63513.41;4987854;28;20027;-94
2023/05/06 04:09:41;;;;;;;19.40;11.43;;;;;;;7.56;100.00;63511.50;4956232;28;20034;-95
2023/05/06 04:12:07;;;;;;;18.50;11.97;;;;;;;7.55;100.00;63510.28;4988195;28;20277;-95
2023/05/06 04:14:32;;;;;;;15.93;10.77;;;;;;;7.54;100.00;63509.28;4988568;28;20520;-94
2023/05/06 04:16:57;;;;;;;24.23;11.17;;;;;;;7.52;100.00;63507.53;4971054;28;20073;-93
2023/05/06 04:19:23;;;;;;;20.50;10.77;;;;;;;7.50;100.00;63505.94;4988354;28;20296;-94
2023/05/06 04:21:48;;;;;;;18.67;10.95;;;;;;;7.50;100.00;63505.19;4988778;28;20022;-94
2023/05/06 04:24:14;;;;;;;18.77;11.27;;;;;;;7.49;100.00;63504.47;4988219;28;20082;-96
2023/05/06 04:26:41;;;;;;;21.95;11.98;;;;;;;7.50;100.00;63505.78;4969962;28;20041;-95
2023/05/06 04:29:06;;;;;;;24.33;12.57;;;;;;;7.52;100.00;63507.34;4987469;28;20038;-94
2023/05/06 04:31:33;;;;;;;21.07;11.90;;;;;;;7.54;100.00;63509.94;4970259;28;20027;-95
2023/05/06 04:33:58;;;;;;;24.83;13.43;;;;;;;7.57;100.00;63512.91;4970344;28;20155;-95
2023/05/06 04:36:24;;;;;;;21.83;12.68;;;;;;;7.61;100.00;63517.16;4986994;28;20031;-94
2023/05/06 04:38:51;;;;;;;23.40;12.17;;;;;;;7.65;100.00;63522.03;4987167;28;20041;-95
2023/05/06 04:41:17;;;;;;;25.90;13.98;;;;;;;7.70;100.00;63526.53;4987083;28;20019;-95
2023/05/06 04:43:42;;;;;;;25.67;14.90;;;;;;;7.75;100.00;63531.59;4986585;28;20027;-95
2023/05/06 04:46:07;;;;;;;26.53;15.47;;;;;;;7.81;100.00;63537.81;4968726;28;20466;-96
2023/05/06 04:48:34;;;;;;;25.75;16.13;;;;;;;7.87;100.00;63544.38;4986957;28;20046;-94
2023/05/06 04:51:00;;;;;;;27.13;16.27;;;;;;;7.94;100.00;63551.34;4986647;28;20034;-94
2023/05/06 04:53:25;;;;;;;29.15;16.83;;;;;;;8.01;100.00;63558.38;4987403;28;20089;-95
2023/05/06 04:55:50;;;;;;;27.38;16.98;;;;;;;8.08;100.00;63565.44;4986558;28;20031;-95
2023/05/06 04:58:16;;;;;;;27.10;17.87;;;;;;;8.15;100.00;63572.91;4986608;28;20031;-95
2023/05/06 05:00:41;;;;;;;27.93;17.87;;;;;;;8.24;100.00;63581.53;4986717;28;20525;-95
2023/05/06 05:03:07;;;;;;;35.90;19.50;;;;;;;8.32;100.00;63589.84;4986743;28;20025;-94
2023/05/06 05:05:33;;;;;;;31.90;19.33;;;;;;;8.40;100.00;63598.56;4969449;28;20023;-96
2023/05/06 05:07:58;;;;;;;32.47;19.70;;;;;;;8.49;100.00;63607.63;4982747;28;20023;-96
2023/05/06 05:10:24;;;;;;;27.80;18.67;;;;;;;8.58;100.00;63616.09;4987460;28;20026;-96
2023/05/06 05:12:49;;;;;;;29.23;18.50;;;;;;;8.67;100.00;63624.97;4987446;28;20522;-96
2023/05/06 05:15:15;;;;;;;34.47;21.10;;;;;;;8.75;100.00;63633.88;4970148;28;20027;-95
2023/05/06 05:17:40;;;;;;;28.90;20.63;;;;;;;8.84;100.00;63642.19;4970892;28;20063;-95
2023/05/06 05:20:06;;;;;;;28.67;21.70;;;;;;;8.91;100.00;63649.88;4987351;28;20027;-95
2023/05/06 05:22:31;;;;;;;31.20;21.77;;;;;;;8.99;100.00;63657.63;4987128;28;20034;-95
2023/05/06 05:24:57;;;;;;;29.30;21.57;;;;;;;9.07;100.00;63665.91;4987101;28;20019;-95
2023/05/06 05:27:22;;;;;;;29.73;22.48;;;;;;;9.16;100.00;63674.41;4986428;28;20077;-96
2023/05/06 05:29:48;;;;;;;33.23;22.57;;;;;;;9.23;100.00;63682.22;4986058;28;20033;-96
2023/05/06 05:32:13;;;;;;;24.77;19.00;;;;;;;9.30;100.00;63689.34;4986730;28;20051;-95
2023/05/06 05:34:39;;;;;;;30.02;21.13;;;;;;;9.36;100.00;63695.25;4986193;28;20584;-94
2023/05/06 05:37:11;;;;;;;25.27;17.93;;;;;;;9.42;100.00;63700.91;4987757;28;20112;-96
2023/05/06 05:43:11;;;;;;;22.05;16.85;;;;;;;9.52;100.00;63711.38;4991017;28;20050;-96
2023/05/06 05:45:43;;;;;;;25.00;17.17;;;;;;;9.56;100.00;63715.69;4990484;28;20083;-96
2023/05/06 05:48:08;;;;;;;24.20;18.08;;;;;;;9.61;100.00;63721.34;4973254;28;20023;-95
2023/05/06 05:50:48;;;;;;;25.17;18.93;;;;;;;9.68;100.00;63727.66;4990309;28;20026;-96
2023/05/06 05:53:20;;;;;;;24.23;15.52;;;;;;;9.75;100.00;63735.03;4988831;28;20023;-95
2023/05/06 05:55:48;;;;;;;20.17;13.48;;;;;;;9.83;100.00;63742.94;4988291;28;20030;-96
2023/05/06 05:58:35;;;;;;;20.95;13.07;;;;;;;9.93;100.00;63752.75;4970873;28;20031;-96
2023/05/06 06:01:01;;;;;;;16.50;12.40;;;;;;;10.03;100.00;63762.72;4971151;28;20049;-96
2023/05/06 06:03:35;;;;;;;20.23;12.97;;;;;;;10.13;100.00;63773.78;4988567;28;20023;-96
2023/05/06 06:06:38;;;;;;;17.42;11.60;;;;;;;10.25;100.00;63785.34;4988695;28;20065;-96
2023/05/06 06:09:04;;;;;;;14.20;10.50;;;;;;;10.36;100.00;63796.41;4987387;28;20045;-96
2023/05/06 06:11:29;;;;;;;15.37;9.73;;;;;;;10.47;100.00;63807.81;4969364;28;20050;-96
2023/05/06 06:14:11;;;;;;;16.53;9.77;;;;;;;10.58;100.00;63818.09;4987053;28;20074;-96
2023/05/06 06:16:45;;;;;;;16.60;9.32;;;;;;;10.68;100.00;63829.00;4962362;28;20085;-96
2023/05/06 06:19:14;;;;;;;15.77;9.40;;;;;;;10.79;100.00;63839.47;4968861;28;20031;-96
2023/05/06 06:21:56;;;;;;;13.25;9.68;;;;;;;10.88;100.00;63849.63;4986636;28;20038;-94
2023/05/06 06:24:33;;;;;;;15.15;10.80;;;;;;;10.98;100.00;63859.59;4986732;28;20038;-96
2023/05/06 06:27:38;;;;;;;16.17;10.02;;;;;;;11.08;100.00;63869.84;4969348;28;20027;-95
2023/05/06 06:30:04;;;;;;;15.63;9.90;;;;;;;11.18;100.00;63880.09;4947117;28;20043;-95
2023/05/06 06:33:01;;;;;;;14.50;9.05;;;;;;;11.29;100.00;63891.25;4985917;28;20086;-95
2023/05/06 06:38:25;;;;;;;12.57;7.97;;;;;;;11.49;100.00;63911.88;4975810;28;20039;-96
2023/05/06 06:40:50;;;;;;;14.35;7.35;;;;;;;11.59;100.00;63921.28;4967785;28;20129;-96
2023/05/06 06:43:57;;;;;;;13.67;7.73;;;;;;;11.70;100.00;63932.31;4984584;28;20098;-95
2023/05/06 06:46:24;;;;;;;12.75;7.18;;;;;;;11.80;100.00;63943.31;4956857;28;20418;-95
2023/05/06 06:48:55;;;;;;;11.02;7.00;;;;;;;11.91;100.00;63953.41;4969604;28;20102;-95
2023/05/06 06:51:23;;;;;;;10.77;6.65;;;;;;;12.01;100.00;63963.66;4988729;28;20035;-95
2023/05/06 06:54:01;;;;;;;9.93;6.78;;;;;;;12.12;100.00;63974.63;4970650;28;20038;-95
2023/05/06 06:56:47;;;;;;;8.65;5.82;;;;;;;12.22;100.00;63984.72;4971228;28;20037;-95
2023/05/06 06:59:15;;;;;;;11.48;6.30;;;;;;;12.31;100.00;63994.72;4954354;28;20498;-95
2023/05/06 07:01:56;;;;;;;11.75;6.65;;;;;;;12.41;100.00;64004.78;4989584;28;20070;-96
2023/05/06 07:04:48;;;;;;;9.57;5.95;;;;;;;12.52;100.00;64015.53;4972112;28;20035;-95
2023/05/06 07:10:23;;;;;;;13.23;6.40;;;;;;;12.74;100.00;64038.44;4926954;29;20314;-96
2023/05/06 07:15:24;;;;;;;10.23;6.37;;;;;;;12.97;100.00;64061.84;4768222;26;20043;-96
2023/05/06 07:17:49;;;;;;;10.23;6.57;;;;;;;13.08;100.00;64073.16;4974334;28;20650;-96
2023/05/06 07:20:18;;;;;;;10.33;7.03;;;;;;;13.20;100.00;64085.41;4973652;28;20089;-96
2023/05/06 07:22:56;;;;;;;13.70;6.75;;;;;;;13.32;100.00;64097.50;4991143;23;20105;-96
2023/05/06 07:25:47;;;;;;;10.88;6.75;;;;;;;13.45;100.00;64111.44;4935601;29;20050;-94
2023/05/06 07:28:22;;;;;;;10.90;6.50;;;;;;;13.58;100.00;64124.44;4937197;29;20465;-95
2023/05/06 07:30:56;;;;;;;13.18;7.22;;;;;;;13.71;100.00;64137.34;4955669;29;20082;-95
2023/05/06 07:33:36;;;;;;;16.52;6.80;;;;;;;13.83;100.00;64149.84;4954248;29;20027;-96
2023/05/06 07:36:11;;;;;;;12.45;7.35;;;;;;;13.96;100.00;64162.44;4954241;29;20085;-96
2023/05/06 07:38:38;;;;;;;13.83;7.77;;;;;;;14.08;100.00;64175.44;4954649;29;20046;-94
2023/05/06 07:41:04;;;;;;;16.63;8.03;;;;;;;14.20;100.00;64187.53;4954961;29;20303;-95
2023/05/06 07:43:29;;;;;;;14.82;8.32;;;;;;;14.32;100.00;64199.31;4956062;29;20032;-95
2023/05/06 07:46:01;;;;;;;13.77;7.30;;;;;;;14.43;100.00;64210.97;4938250;29;20485;-94
2023/05/06 07:48:32;;;;;;;15.55;7.43;;;;;;;14.54;100.00;64222.31;4954820;29;20142;-94
2023/05/06 07:51:04;;;;;;;15.83;8.43;;;;;;;14.66;100.00;64233.56;4937169;29;20070;-96
2023/05/06 07:53:33;;;;;;;18.50;8.73;;;;;;;14.76;100.00;64244.59;4954021;29;20282;-96
2023/05/06 07:56:05;;;;;;;15.40;8.10;;;;;;;14.87;100.00;64256.09;4953872;29;20462;-95
2023/05/06 07:58:34;;;;;;;13.73;7.93;;;;;;;14.98;100.00;64267.19;4953912;29;20027;-96
2023/05/06 08:01:02;;;;;;;15.43;8.27;;;;;;;15.09;100.00;64278.06;4952313;28;20075;-95
2023/05/06 08:03:33;;;;;;;15.38;8.40;;;;;;;15.19;100.00;64288.91;4936767;29;20043;-95
2023/05/06 08:06:01;;;;;;;12.55;7.93;;;;;;;15.29;100.00;64299.31;4953958;29;20671;-95
2023/05/06 08:08:33;;;;;;;14.35;7.82;;;;;;;15.39;100.00;64309.78;4953793;29;20023;-95
2023/05/06 08:10:59;;;;;;;13.50;7.75;;;;;;;15.49;100.00;64320.28;4953701;29;20629;-96
2023/05/06 08:13:36;;;;;;;16.50;9.20;;;;;;;15.58;100.00;64329.38;4953974;29;20023;-96
2023/05/06 08:16:10;;;;;;;11.10;7.55;;;;;;;15.68;100.00;64339.31;4953180;29;20035;-96
2023/05/06 08:18:36;;;;;;;13.40;8.15;;;;;;;15.79;100.00;64350.69;4953633;29;20055;-94
2023/05/06 08:21:04;;;;;;;13.23;7.00;;;;;;;15.88;100.00;64360.28;4936142;29;20066;-96
2023/05/06 08:23:31;;;;;;;12.70;6.78;;;;;;;15.97;100.00;64369.31;4937144;29;20031;-95
2023/05/06 08:26:05;;;;;;;12.53;6.17;;;;;;;16.05;100.00;64377.56;4935603;29;20158;-96
2023/05/06 08:28:37;;;;;;;11.33;6.03;;;;;;;16.13;100.00;64386.00;4953192;29;20295;-95
2023/05/06 08:31:18;;;;;;;10.18;5.65;;;;;;;16.21;100.00;64393.94;4935424;29;20117;-95
2023/05/06 08:33:43;;;;;;;12.15;6.07;;;;;;;16.30;100.00;64403.19;4948819;23;1077698;-95
2023/05/06 08:36:17;;;;;;;9.47;5.73;;;;;;;16.39;100.00;64411.97;4955053;28;20035;-95
2023/05/06 08:38:49;;;;;;;11.13;5.63;;;;;;;16.48;100.00;64421.50;4955502;28;20386;-95
2023/05/06 08:41:29;;;;;;;12.23;5.70;;;;;;;16.57;100.00;64430.53;4955629;28;20038;-95
2023/05/06 08:43:57;;;;;;;10.70;5.82;;;;;;;16.66;100.00;64440.38;4959024;28;20019;-94
2023/05/06 08:46:22;;;;;;;13.52;6.30;;;;;;;16.76;98.53;64450.97;4959894;28;20031;-95
2023/05/06 08:48:48;;;;;;;9.33;5.97;;;;;;;16.87;95.71;64462.78;4972951;28;20494;-94
2023/05/06 08:51:39;;;;;;;9.50;5.50;;;;;;;16.98;95.95;64472.97;4973413;28;20030;-95
2023/05/06 08:54:14;;;;;;;7.30;5.00;;;;;;;17.07;94.82;64482.84;4971826;28;20286;-96
2023/05/06 08:56:55;;;;;;;8.38;5.18;;;;;;;17.17;92.47;64493.03;4954514;28;20027;-96
2023/05/06 08:59:33;;;;;;;8.18;4.82;;;;;;;17.28;97.49;64504.16;4956779;28;20038;-94
2023/05/06 09:02:14;;;;;;;9.48;5.10;;;;;;;17.38;93.53;64515.25;4954919;28;20066;-94
2023/05/06 09:04:43;;;;;;;11.07;4.35;;;;;;;17.48;89.69;64526.03;4953932;28;20038;-94
2023/05/06 09:07:14;;;;;;;7.32;3.50;;;;;;;17.58;86.55;64535.75;4971300;28;20501;-95
2023/05/06 09:09:50;;;;;;;7.47;3.83;;;;;;;17.67;91.84;64545.28;4973467;28;20078;-95
2023/05/06 09:17:48;;;;;;;6.47;3.10;;;;;;;17.88;85.97;64567.19;4973699;28;20776;-93
2023/05/06 09:20:15;;;;;;;8.00;3.20;;;;;;;17.95;84.37;64574.28;4971548;28;20058;-95
2023/05/06 09:22:57;;;;;;;;;;;;;;;;;;;;;
2023/05/06 09:25:31;;;;;;;5.13;2.97;;;;;;;18.10;84.15;64588.69;4971341;28;20502;-94
2023/05/06 09:28:15;;;;;;;4.97;3.10;;;;;;;18.18;87.24;64596.81;4971717;28;20490;-94
2023/05/06 09:30:50;;;;;;;3.88;3.42;;;;;;;18.26;84.69;64605.31;4971664;28;20027;-94
2023/05/06 09:33:16;;;;;;;5.22;3.83;;;;;;;18.35;82.35;64614.09;4955076;28;20482;-94
2023/05/06 09:35:50;;;;;;;7.83;3.97;;;;;;;18.43;85.15;64622.66;4971420;28;20041;-94
2023/05/06 09:38:16;;;;;;;6.00;3.40;;;;;;;18.51;79.16;64630.69;4971454;28;20035;-94
2023/05/06 09:40:41;;;;;;;5.50;3.23;;;;;;;18.58;76.71;64638.53;4971445;28;20383;-94
2023/05/06 09:43:16;;;;;;;5.07;2.80;;;;;;;18.67;77.93;64647.91;4971487;28;20027;-93
2023/05/06 09:45:43;;;;;;;5.15;2.70;;;;;;;18.76;79.52;64657.28;4971370;28;20035;-94
2023/05/06 09:48:08;;;;;;;6.30;2.80;;;;;;;18.85;77.21;64666.97;4971455;28;20033;-94
2023/05/06 09:50:34;;;;;;;3.87;2.83;;;;;;;18.95;70.86;64676.53;4954941;28;20023;-93
2023/05/06 09:53:03;;;;;;;3.60;2.70;;;;;;;19.03;70.94;64685.25;4971479;28;20023;-94
2023/05/06 09:55:32;;;;;;;4.10;2.78;;;;;;;19.12;73.74;64694.38;4971266;28;20035;-93
2023/05/06 09:58:12;;;;;;;5.25;2.55;;;;;;;19.20;74.75;64702.56;4971705;28;20027;-93
2023/05/06 10:00:42;;;;;;;6.45;2.15;;;;;;;19.28;73.25;64710.75;4971831;28;20118;-92
2023/05/06 10:03:07;;;;;;;3.95;2.25;;;;;;;19.38;76.63;64720.81;4953854;28;20034;-93
2023/05/06 10:05:35;;;;;;;4.67;2.30;;;;;;;19.48;71.80;64731.53;4971456;28;20027;-94
2023/05/06 10:08:03;;;;;;;3.20;2.20;;;;;;;19.57;70.07;64741.06;4972063;28;20031;-93
2023/05/06 10:10:28;;;;;;;3.95;1.90;;;;;;;19.67;70.12;64750.44;4972677;28;20023;-92
2023/05/06 10:12:55;;;;;;;4.03;1.75;;;;;;;19.76;71.25;64760.16;4972214;28;20035;-94
2023/05/06 10:15:20;;;;;;;4.13;2.00;;;;;;;19.86;69.29;64771.03;4971802;28;20054;-93
2023/05/06 10:17:49;;;;;;;2.57;1.63;;;;;;;19.97;65.49;64782.25;4974730;28;20474;-94
2023/05/06 10:20:16;;;;;;;4.32;1.80;;;;;;;20.09;65.27;64794.72;4981710;28;20118;-93
2023/05/06 10:22:50;;;;;;;2.95;1.70;;;;;;;20.23;64.96;64808.72;4990849;28;20058;-92
2023/05/06 10:25:34;;;;;;;3.17;1.70;;;;;;;20.38;63.23;64825.06;4986132;28;20647;-92
2023/05/06 10:28:00;;;;;;;5.03;1.93;;;;;;;20.54;61.67;64840.56;4982915;28;20060;-93
2023/05/06 10:30:27;;;;;;;2.57;1.50;;;;;;;20.66;61.22;64853.19;4981514;28;20286;-92
2023/05/06 10:32:57;;;;;;;3.22;1.60;;;;;;;20.76;63.48;64863.53;4976804;28;20033;-93
2023/05/06 10:35:45;;;;;;;3.30;1.70;;;;;;;20.86;65.18;64873.75;4975243;28;20058;-92
2023/05/06 10:38:31;;;;;;;4.35;2.10;;;;;;;20.94;61.74;64883.13;4975814;28;20068;-93
2023/05/06 10:40:58;;;;;;;3.55;1.80;;;;;;;21.03;62.88;64892.78;4975719;28;20035;-93
2023/05/06 10:43:31;;;;;;;4.05;1.58;;;;;;;21.16;63.56;64905.84;4976731;28;20026;-92
2023/05/06 10:46:00;;;;;;;3.20;1.90;;;;;;;21.29;60.28;64918.91;4978633;28;20118;-93
2023/05/06 10:48:26;;;;;;;5.43;1.70;;;;;;;21.42;58.99;64932.41;4986874;28;20054;-92
2023/05/06 10:51:20;;;;;;;2.93;2.00;;;;;;;21.56;63.50;64946.66;4959951;28;20353;-92
2023/05/06 10:54:07;;;;;;;2.58;1.80;;;;;;;21.67;57.56;64957.81;4974948;28;20537;-92
2023/05/06 10:56:33;;;;;;;4.13;1.92;;;;;;;21.77;56.53;64967.63;4977062;28;20027;-92
2023/05/06 10:59:09;;;;;;;3.10;2.00;;;;;;;21.85;57.71;64976.28;4975658;28;20162;-92
2023/05/06 11:01:36;;;;;;;2.70;1.90;;;;;;;21.93;55.33;64984.81;4976146;28;20079;-92
2023/05/06 11:04:06;;;;;;;5.57;2.00;;;;;;;22.01;58.24;64993.28;4965716;28;20023;-94
2023/05/06 11:06:40;;;;;;;3.03;2.00;;;;;;;22.08;56.61;64999.75;4975252;28;20486;-91
2023/05/06 11:09:15;;;;;;;2.67;1.57;;;;;;;22.14;54.97;65006.28;4976362;28;20023;-92
2023/05/06 11:12:01;;;;;;;2.60;1.60;;;;;;;22.20;57.13;65012.84;4969697;28;20812;-92
2023/05/06 11:14:29;;;;;;;3.20;1.90;;;;;;;22.25;56.05;65017.78;4979286;28;20045;-91
2023/05/06 11:16:56;;;;;;;3.45;1.52;;;;;;;22.30;55.57;65023.41;4986871;28;20105;-93
2023/05/06 11:19:32;;;;;;;4.40;1.73;;;;;;;22.34;56.41;65027.19;4988006;28;20034;-91
2023/05/06 11:21:59;;;;;;;4.78;1.90;;;;;;;22.38;55.66;65031.53;4992138;28;20113;-91
2023/05/06 11:24:31;;;;;;;3.53;1.92;;;;;;;22.45;55.83;65038.94;4969675;28;20018;-93
2023/05/06 11:27:00;;;;;;;4.55;1.95;;;;;;;22.50;55.00;65043.53;4986436;28;20132;-93
2023/05/06 11:29:26;;;;;;;2.28;1.88;;;;;;;22.56;55.48;65049.50;4976836;28;20030;-92
2023/05/06 11:31:52;;;;;;;3.70;1.50;;;;;;;22.62;53.75;65056.28;4990580;28;20023;-91
2023/05/06 11:34:29;;;;;;;3.97;2.10;;;;;;;22.65;53.40;65059.16;4967286;28;20164;-92
2023/05/06 11:37:04;;;;;;;3.20;1.52;;;;;;;22.66;53.14;65059.97;4982204;28;20019;-93
2023/05/06 11:39:32;;;;;;;2.55;1.52;;;;;;;22.68;54.75;65061.66;4984553;28;20023;-93
2023/05/06 11:42:02;;;;;;;2.47;1.42;;;;;;;22.72;52.98;65065.34;4983171;28;20042;-91
2023/05/06 11:44:33;;;;;;;5.07;1.50;;;;;;;22.78;53.56;65071.13;4963856;28;20023;-92
2023/05/06 11:47:04;;;;;;;2.73;1.50;;;;;;;22.86;53.67;65079.09;4978345;28;20026;-93
2023/05/06 11:49:41;;;;;;;2.63;1.50;;;;;;;22.95;52.30;65088.56;4980441;28;20361;-91
2023/05/06 11:52:08;;;;;;;3.55;1.60;;;;;;;23.05;49.84;65098.97;4975741;28;20117;-92